Flight Track Log - Related Links

Times and Time Zones

All times are in EDT time to prevent confusion due to time zone crossing. See the DAL1103 flight status page for this flight to view local times or setup timezone preferences in your user account.

Time Position Orientation Groundspeed Altitude Reporting Facility
EDT Latitude Longitude Course Direction KTS MPH feet Rate Location/Type
Sat 11:21:14 AM 44.9000 -93.2667 115° Southeast 186 214 2,100  Level Minneapolis TRACON
Sat 11:22:14 AM 44.8833 -93.3667 257° West 260 299 3,200 1,814 Climbing Minneapolis TRACON
Sat 11:23:00 AM 44.5607 -92.9228 90° East  Level Estimated
Sat 11:23:23 AM 44.8189 -93.3958 198° South 282 325 6,000  Level Minneapolis Center
Sat 11:24:00 AM 44.4534 -92.8239 120° Southeast  Level Estimated
Sat 11:24:25 AM 44.7714 -93.3047 126° Southeast 294 338 8,500  Level Minneapolis Center
Sat 11:25:00 AM 44.3461 -92.7254 125° Southeast  Level Estimated
Sat 11:25:27 AM 44.7158 -93.1931 125° Southeast 310 357 10,500  Level Minneapolis Center
Sat 11:26:00 AM 44.2386 -92.6272 115° Southeast  Level Estimated
Sat 11:26:28 AM 44.6600 -93.0803 125° Southeast 352 405 12,500  Level Minneapolis Center
Sat 11:27:30 AM 44.6008 -92.9617 125° Southeast 370 426 14,600 2,049 Climbing Minneapolis Center
Sat 11:28:31 AM 44.5389 -92.8392 125° Southeast 385 443 16,700 1,951 Climbing Minneapolis Center
Sat 11:29:33 AM 44.4753 -92.7139 125° Southeast 393 452 18,600 1,902 Climbing Minneapolis Center
Sat 11:30:34 AM 44.3964 -92.5578 125° Southeast 408 470 20,600 1,854 Climbing Minneapolis Center
Sat 11:31:36 AM 44.3286 -92.4208 125° Southeast 425 489 22,400 1,548 Climbing Minneapolis Center
Sat 11:32:38 AM 44.2683 -92.2778 120° Southeast 429 494 23,800 1,268 Climbing Minneapolis Center
Sat 11:33:39 AM 44.2042 -92.1319 122° Southeast 441 507 25,000 1,268 Climbing Minneapolis Center
Sat 11:34:41 AM 44.1400 -91.9822 121° Southeast 450 518 26,400 1,268 Climbing Minneapolis Center
Sat 11:35:42 AM 44.0733 -91.8356 122° Southeast 450 518 27,600 1,073 Climbing Minneapolis Center
Sat 11:36:44 AM 44.0008 -91.6653 121° Southeast 467 537 28,600 677 Climbing Minneapolis Center
Sat 11:37:46 AM 43.9256 -91.5144 125° Southeast 475 547 29,000 537 Climbing Minneapolis Center
Sat 11:38:47 AM 43.8150 -91.3967 142° Southeast 499 574 29,700 927 Climbing Minneapolis Center
Sat 11:39:49 AM 43.6900 -91.3083 153° Southeast 505 581 30,900 1,161 Climbing Minneapolis Center
Sat 11:40:51 AM 43.5678 -91.2206 153° Southeast 502 578 32,100 1,220 Climbing Minneapolis Center
Sat 11:41:52 AM 43.4211 -91.1167 153° Southeast 498 573 33,400 1,122 Climbing Minneapolis Center
Sat 11:42:54 AM 43.3006 -91.0322 153° Southeast 490 564 34,400 683 Climbing Minneapolis Center
Sat 11:43:55 AM 43.1822 -90.9483 153° Southeast 483 556 34,800 293 Climbing Minneapolis Center
Sat 11:44:57 AM 43.0600 -90.8644 153° Southeast 488 562 35,000 97 Climbing Minneapolis Center
Sat 11:45:59 AM 42.9400 -90.7803 153° Southeast 488 562 35,000  Level Minneapolis Center
Sat 11:47:00 AM 42.8225 -90.7000 153° Southeast 481 554 35,000  Level Minneapolis Center
Sat 11:48:02 AM 42.6975 -90.6142 153° Southeast 471 542 35,000  Level Minneapolis Center
Sat 11:49:32 AM 42.5225 -90.4944 153° Southeast 472 543 35,000  Level Chicago Center
Sat 11:50:33 AM 42.4064 -90.4156 153° Southeast 470 541 35,000  Level Chicago Center
Sat 11:51:35 AM 42.2908 -90.3372 153° Southeast 467 537 35,000  Level Chicago Center
Sat 11:52:36 AM 42.1744 -90.2594 154° Southeast 468 539 35,000  Level Chicago Center
Sat 11:53:38 AM 42.0347 -90.1644 153° Southeast 469 540 35,000  Level Chicago Center
Sat 11:54:39 AM 41.9169 -90.0883 154° Southeast 473 544 35,000  Level Chicago Center
Sat 11:55:41 AM 41.7989 -90.0114 154° Southeast 474 545 35,000  Level Chicago Center
Sat 11:56:42 AM 41.6917 -89.9353 152° Southeast 471 542 35,000 49 Level Chicago Center
Sat 11:57:44 AM 41.5711 -89.8558 154° Southeast 478 550 35,100 634 Climbing Chicago Center
Sat 11:58:45 AM 41.4264 -89.7622 154° Southeast 480 552 36,300 878 Climbing Chicago Center
Sat 11:59:47 AM 41.3092 -89.6853 154° Southeast 469 540 36,900 341 Climbing Chicago Center
Sat 12:00:48 PM 41.1917 -89.6075 154° Southeast 470 541 37,000 49 Climbing Chicago Center
Sat 12:01:50 PM 41.0675 -89.5378 157° South 478 550 37,000  Level Chicago Center
Sat 12:02:51 PM 40.9406 -89.4722 159° South 483 556 37,000  Level Chicago Center
Sat 12:03:53 PM 40.8125 -89.4047 158° South 488 562 37,000  Level Chicago Center
Sat 12:04:54 PM 40.6856 -89.3378 158° South 486 559 37,000  Level Chicago Center
Sat 12:05:56 PM 40.5586 -89.2722 159° South 486 559 37,000  Level Chicago Center
Sat 12:06:57 PM 40.4336 -89.2092 159° South 481 554 37,000  Level Chicago Center
Sat 12:07:59 PM 40.3089 -89.1453 159° South 480 552 37,000  Level Chicago Center
Sat 12:09:01 PM 40.1847 -89.0811 158° South 480 552 37,000  Level Chicago Center
Sat 12:10:02 PM 40.0586 -89.0194 159° South 483 556 37,000  Level Chicago Center
Sat 12:11:04 PM 39.9094 -88.9444 159° South 480 552 37,000  Level Chicago Center
Sat 12:11:35 PM 39.8608 -88.9183 158° South 479 551 37,000  Level Kansas City Center
Sat 12:12:36 PM 39.7356 -88.8553 159° South 482 555 37,000  Level Kansas City Center
Sat 12:13:38 PM 39.6153 -88.7800 154° Southeast 480 552 37,000  Level Kansas City Center
Sat 12:14:40 PM 39.4719 -88.6908 154° Southeast 477 549 37,000  Level Kansas City Center
Sat 12:15:42 PM 39.3672 -88.6275 155° Southeast 477 549 37,000  Level Kansas City Center
Sat 12:16:43 PM 39.2428 -88.5506 154° Southeast 477 549 37,000  Level Kansas City Center
Sat 12:17:45 PM 39.1236 -88.4764 154° Southeast 477 549 37,000  Level Kansas City Center
Sat 12:18:47 PM 38.9800 -88.3886 155° Southeast 475 547 37,000  Level Kansas City Center
Sat 12:19:48 PM 38.8603 -88.3158 155° Southeast 476 548 37,000  Level Kansas City Center
Sat 12:20:50 PM 38.7414 -88.2436 155° Southeast 473 544 37,000  Level Kansas City Center
Sat 12:21:52 PM 38.6200 -88.1728 155° Southeast 477 549 37,000  Level Kansas City Center
Sat 12:22:54 PM 38.4994 -88.1003 155° Southeast 478 550 37,000  Level Kansas City Center
Sat 12:23:31 PM 38.4281 -88.0578 155° Southeast 475 547 37,000  Level Indianapolis Center
Sat 12:24:33 PM 38.3081 -87.9869 155° Southeast 477 549 37,000  Level Indianapolis Center
Sat 12:25:34 PM 38.1642 -87.9014 155° Southeast 476 548 37,000  Level Indianapolis Center
Sat 12:26:36 PM 38.0453 -87.8328 156° South 471 542 37,000  Level Indianapolis Center
Sat 12:27:38 PM 37.9306 -87.7647 155° Southeast 461 531 37,000  Level Indianapolis Center
Sat 12:28:39 PM 37.8150 -87.6939 154° Southeast 460 529 37,000  Level Indianapolis Center
Sat 12:29:41 PM 37.6897 -87.6158 154° Southeast 460 529 37,000  Level Indianapolis Center
Sat 12:30:42 PM 37.5731 -87.5444 154° Southeast 461 531 37,000  Level Indianapolis Center
Sat 12:31:44 PM 37.4553 -87.4753 155° Southeast 463 533 37,000  Level Indianapolis Center
Sat 12:32:45 PM 37.3383 -87.4039 154° Southeast 463 533 37,000  Level Indianapolis Center
Sat 12:33:47 PM 37.2228 -87.3331 154° Southeast 458 527 37,000  Level Indianapolis Center
Sat 12:34:48 PM 37.1067 -87.2633 154° Southeast 459 528 37,000  Level Indianapolis Center
Sat 12:35:50 PM 36.9892 -87.1928 154° Southeast 462 532 37,000  Level Indianapolis Center
Sat 12:36:51 PM 36.8725 -87.1211 154° Southeast 462 532 37,000  Level Indianapolis Center
Sat 12:37:53 PM 36.7558 -87.0511 154° Southeast 460 529 37,000  Level Indianapolis Center
Sat 12:38:54 PM 36.6394 -86.9806 154° Southeast 459 528 37,000  Level Indianapolis Center
Sat 12:39:56 PM 36.5219 -86.9106 154° Southeast 460 529 37,000  Level Indianapolis Center
Sat 12:40:57 PM 36.4056 -86.8400 154° Southeast 456 525 37,000  Level Indianapolis Center
Sat 12:41:58 PM 36.2731 -86.7608 154° Southeast 468 539 37,000  Level Memphis Center
Sat 12:42:58 PM 36.1608 -86.6989 156° South 460 529 37,000  Level Memphis Center
Sat 12:43:58 PM 36.0317 -86.6328 158° South 454 522 37,000  Level Memphis Center
Sat 12:44:58 PM 35.9131 -86.5742 158° South 454 522 37,000  Level Memphis Center
Sat 12:45:58 PM 35.7947 -86.5156 158° South 459 528 37,000  Level Memphis Center
Sat 12:48:21 PM 35.5106 -86.3733 158° South 476 548 37,000  Level Atlanta Center
Sat 12:49:21 PM 35.3906 -86.3139 158° South 466 536 37,000  Level Atlanta Center
Sat 12:50:21 PM 35.2728 -86.2572 159° South 466 536 37,000  Level Atlanta Center
Sat 12:51:21 PM 35.1569 -86.1981 157° South 461 531 37,000  Level Atlanta Center
Sat 12:52:21 PM 35.0431 -86.1494 161° South 461 531 37,000  Level Atlanta Center
Sat 12:53:21 PM 34.9128 -86.0803 156° South 468 539 37,000  Level Atlanta Center
Sat 12:54:21 PM 34.7925 -86.0217 158° South 468 539 37,000  Level Atlanta Center
Sat 12:55:21 PM 34.6725 -85.9658 159° South 468 539 37,000  Level Atlanta Center
Sat 12:56:21 PM 34.5503 -85.9075 159° South 468 539 37,000  Level Atlanta Center
Sat 12:57:21 PM 34.4322 -85.8494 158° South 468 539 37,000  Level Atlanta Center
Sat 12:58:21 PM 34.3119 -85.7992 161° South 468 539 37,000  Level Atlanta Center
Sat 12:59:21 PM 34.1936 -85.7439 159° South 460 529 37,000  Level Atlanta Center
Sat 01:00:21 PM 34.0733 -85.6839 158° South 468 539 37,000  Level Atlanta Center
Sat 01:01:21 PM 33.9531 -85.6292 159° South 468 539 37,000  Level Atlanta Center
Sat 01:02:21 PM 33.8347 -85.5744 159° South 468 539 37,000  Level Atlanta Center
Sat 01:03:21 PM 33.7144 -85.5172 158° South 468 539 37,000  Level Atlanta Center
Sat 01:04:21 PM 33.5919 -85.4603 159° South 463 533 37,000  Level Atlanta Center
Sat 01:05:21 PM 33.4714 -85.4061 159° South 470 541 37,000  Level Atlanta Center
Sat 01:06:21 PM 33.3553 -85.3519 159° South 460 529 37,000  Level Atlanta Center
Sat 01:07:21 PM 33.2347 -85.2956 159° South 460 529 37,000  Level Atlanta Center
Sat 01:08:21 PM 33.1164 -85.2392 158° South 460 529 37,000  Level Atlanta Center
Sat 01:09:21 PM 32.9936 -85.1831 159° South 460 529 37,000  Level Atlanta Center
Sat 01:10:21 PM 32.8686 -85.1517 168° South 465 535 37,000  Level Atlanta Center
Sat 01:11:21 PM 32.7481 -85.1008 160° South 459 528 37,000  Level Atlanta Center
Sat 01:12:21 PM 32.6211 -85.0550 163° South 459 528 37,000  Level Atlanta Center
Sat 01:13:21 PM 32.5006 -85.0167 165° South 459 528 37,000  Level Atlanta Center
Sat 01:15:21 PM 32.2797 -84.9428 164° South 459 528 37,000  Level Atlanta Center
Sat 01:17:18 PM 32.0261 -84.8578 164° South 475 547 37,000  Level Jacksonville Center
Sat 01:18:18 PM 31.8931 -84.8158 165° South 470 541 37,000  Level Jacksonville Center
Sat 01:19:18 PM 31.7683 -84.7767 165° South 464 534 37,000  Level Jacksonville Center
Sat 01:20:18 PM 31.6439 -84.7325 163° South 464 534 37,000  Level Jacksonville Center
Sat 01:21:18 PM 31.5275 -84.6767 158° South 464 534 37,000  Level Jacksonville Center
Sat 01:22:18 PM 31.4158 -84.6064 152° Southeast 459 528 37,000  Level Jacksonville Center
Sat 01:23:18 PM 31.3019 -84.5361 152° Southeast 459 528 37,000 -50 Level Jacksonville Center
Sat 01:24:18 PM 31.1881 -84.4661 152° Southeast 459 528 36,900  Descending Jacksonville Center
Sat 01:25:18 PM 31.0742 -84.3939 151° Southeast 464 534 37,000 50 Climbing Jacksonville Center
Sat 01:26:18 PM 30.9581 -84.3219 152° Southeast 470 541 37,000  Level Jacksonville Center
Sat 01:27:18 PM 30.8419 -84.2475 151° Southeast 470 541 37,000  Level Jacksonville Center
Sat 01:28:18 PM 30.7256 -84.1758 152° Southeast 470 541 37,000  Level Jacksonville Center
Sat 01:29:18 PM 30.6114 -84.1067 152° Southeast 470 541 37,000 -50 Level Jacksonville Center
Sat 01:30:18 PM 30.4994 -84.0328 150° Southeast 465 535 36,900  Descending Jacksonville Center
Sat 01:31:18 PM 30.3831 -83.9617 152° Southeast 465 535 37,000  Climbing Jacksonville Center
Sat 01:32:18 PM 30.2689 -83.8931 153° Southeast 465 535 36,900 -50 Descending Jacksonville Center
Sat 01:33:18 PM 30.1525 -83.8222 152° Southeast 470 541 36,900  Level Jacksonville Center
Sat 01:34:18 PM 30.0381 -83.7517 152° Southeast 470 541 36,900  Level Jacksonville Center
Sat 01:35:18 PM 29.9239 -83.6833 153° Southeast 470 541 36,900 -150 Level Jacksonville Center
Sat 01:36:18 PM 29.8094 -83.6131 152° Southeast 465 535 36,600 -650 Descending Jacksonville Center
Sat 01:37:18 PM 29.6969 -83.5453 152° Southeast 465 535 35,600 -850 Descending Jacksonville Center
Sat 01:38:18 PM 29.5825 -83.4778 153° Southeast 470 541 34,900 -350 Descending Jacksonville Center
Sat 01:39:18 PM 29.4658 -83.4078 152° Southeast 470 541 34,900  Level Jacksonville Center
Sat 01:40:18 PM 29.3514 -83.3381 152° Southeast 470 541 34,900  Level Jacksonville Center
Sat 01:41:18 PM 29.2389 -83.2686 152° Southeast 470 541 34,900  Level Jacksonville Center
Sat 01:42:18 PM 29.1264 -83.2017 153° Southeast 463 533 34,900 -250 Level Jacksonville Center
Sat 01:43:18 PM 29.0158 -83.1372 153° Southeast 458 527 34,400 -950 Descending Jacksonville Center
Sat 01:44:18 PM 28.9053 -83.0706 152° Southeast 452 520 33,000 -1,350 Descending Jacksonville Center
Sat 01:45:18 PM 28.7928 -83.0039 153° Southeast 452 520 31,700 -1,050 Descending Jacksonville Center
Sat 01:46:18 PM 28.6819 -82.9353 151° Southeast 452 520 30,900 -400 Descending Jacksonville Center
Sat 01:47:18 PM 28.5797 -82.8783 154° Southeast 457 526 30,900  Level Jacksonville Center
Sat 01:48:18 PM 28.4650 -82.8100 152° Southeast 457 526 30,900  Level Jacksonville Center
Sat 01:51:15 PM 28.1189 -82.6069 153° Southeast 464 534 30,900  Level Miami Center
Sat 01:52:14 PM 28.0025 -82.5400 153° Southeast 464 534 30,900  Level Miami Center
Sat 01:53:14 PM 27.8839 -82.4847 158° South 464 534 30,900 50 Level Miami Center
Sat 01:54:14 PM 27.7603 -82.4411 163° South 464 534 31,000 50 Climbing Miami Center
Sat 01:55:14 PM 27.6514 -82.3958 160° South 456 525 31,000  Level Miami Center
Sat 01:56:14 PM 27.5317 -82.3083 147° Southeast 461 531 31,000  Level Miami Center
Sat 01:57:14 PM 27.4264 -82.2261 145° Southeast 468 539 31,000  Level Miami Center
Sat 01:58:14 PM 27.3167 -82.1392 145° Southeast 475 547 31,000  Level Miami Center
Sat 01:59:15 PM 27.2214 -82.0625 144° Southeast 475 547 31,000  Level Miami Center
Sat 02:00:14 PM 27.1139 -81.9806 146° Southeast 475 547 31,000  Level Miami Center
Sat 02:01:15 PM 27.0061 -81.8967 145° Southeast 475 547 31,000 -248 Level Miami Center
Sat 02:02:15 PM 26.9006 -81.8106 144° Southeast 475 547 30,500 -1,600 Descending Miami Center
Sat 02:03:15 PM 26.7928 -81.7269 145° Southeast 475 547 27,800 -2,650 Descending Miami Center
Sat 02:04:15 PM 26.6908 -81.6483 145° Southeast 470 541 25,200 -2,900 Descending Miami Center
Sat 02:05:15 PM 26.6003 -81.5517 136° Southeast 463 533 22,000 -3,000 Descending Miami Center
Sat 02:06:15 PM 26.5094 -81.4461 134° Southeast 435 501 19,200 -2,550 Descending Miami Center
Sat 02:07:15 PM 26.4392 -81.3597 132° Southeast 421 484 16,900 -2,500 Descending Miami Center
Sat 02:08:15 PM 26.3711 -81.2669 129° Southeast 400 460 14,200 -2,400 Descending Miami Center
Sat 02:09:15 PM 26.2964 -81.1806 134° Southeast 386 444 12,100 -2,459 Descending Miami Center
Sat 02:09:16 PM 26.2797 -81.1731 158° South 380 437 11,700 -1,700 Descending Miami Center
Sat 02:10:15 PM 26.2194 -81.0944 131° Southeast 362 417 10,400 -1,059 Descending Miami Center
Sat 02:10:41 PM 26.1869 -81.0656 141° Southeast 309 356 10,200 -1,200 Descending Miami Center
Sat 02:11:15 PM 26.1586 -81.0300 132° Southeast 332 382 9,200 -1,967 Descending Miami Center
Sat 02:11:42 PM 26.1283 -80.9989 137° Southeast 291 335 8,200 -1,831 Descending Miami Center
Sat 02:12:14 PM 26.1064 -80.9611 123° Southeast 302 348 7,400 -1,612 Descending Miami Center
Sat 02:12:49 PM 26.0953 -80.9119 104° East 280 322 6,400 -1,377 Descending Miami Center
Sat 02:13:15 PM 26.1003 -80.8753 81° East 268 308 6,000 -492 Descending Miami Center
Sat 02:13:50 PM 26.0933 -80.8286 99° East 275 316 5,900  Descending Miami Center
Sat 02:14:15 PM 26.0944 -80.7894 88° East 268 308 6,000 90 Climbing Miami Center
Sat 02:14:57 PM 26.0750 -80.7333 111° Southeast 275 316 6,000  Level Miami Center
Sat 02:15:15 PM 26.0797 -80.7081 78° East 268 308 6,000 -492 Level Miami Center
Sat 02:15:58 PM 26.0772 -80.6478 93° East 272 313 5,500 -900 Descending Miami Center
Sat 02:16:15 PM 26.0800 -80.6247 82° East 268 308 5,100 -655 Descending Miami Center
Sat 02:16:53 PM 26.0772 -80.5717 93° East 273 314 4,900 -100 Descending Miami Center
Sat 02:17:15 PM 26.0800 -80.5417 84° East 268 308 5,000  Climbing Miami Center
Sat 02:17:54 PM 26.0769 -80.4928 94° East 240 276 4,900 -100 Descending Miami Center
Sat 02:18:15 PM 26.0797 -80.4675 83° East 262 302 4,900 -590 Level Miami Center
Sat 02:18:55 PM 26.0767 -80.4258 95° East 207 238 4,300 -1,069 Descending Miami Center
Sat 02:19:56 PM 26.0742 -80.3564 92° East 213 245 3,100 -1,086 Descending Miami Center
Sat 02:20:51 PM 26.0775 -80.3033 86° East 186 214 2,200 -931 Descending Miami Center
Sat 02:21:52 PM 26.0744 -80.2478 93° East 171 197 1,300 -828 Descending Miami Center
Sat 02:22:47 PM 26.0756 -80.2061 88° East 142 163 600 -764 Descending Miami Center

Login

Don't have an account? Register now (free) for customized features, flight alerts, and more!